Skip Navigation

Christman Field Latest Observations

Switch to metric unitsOther observation timesWeekly graphs

Date Time
MST
Temp
°F
RH
%
DewPt
°F
Wind
mph
Dir
°
Gust
mph
Dir
°
Press
in Hg
Solar
W/m^2
Prec
in
2020-02-19 01:30 18.9 61.1 7.8 3.2 323 4.0 325 24.986 0.0 0.00
2020-02-19 01:25 18.6 61.6 7.6 3.4 326 4.2 325 24.986 0.0 0.00
2020-02-19 01:20 18.0 62.9 7.4 2.9 321 3.5 314 24.984 0.0 0.00
2020-02-19 01:15 17.4 65.5 7.8 3.6 315 4.1 314 24.982 0.0 0.00
2020-02-19 01:10 18.0 64.8 8.2 3.5 312 4.9 308 24.982 0.0 0.00
2020-02-19 01:05 18.1 64.2 8.0 2.9 315 3.6 316 24.984 0.0 0.00
2020-02-19 01:00 18.1 65.8 8.5 2.5 331 3.3 333 24.985 0.0 0.00
2020-02-19 00:55 17.8 66.7 8.6 2.3 314 3.5 319 24.985 0.0 0.00
2020-02-19 00:50 18.3 65.5 8.7 3.9 322 5.6 332 24.987 0.0 0.00
2020-02-19 00:45 18.9 63.8 8.6 5.1 331 5.6 331 24.985 0.0 0.00
2020-02-19 00:40 19.4 62.4 8.7 5.3 331 5.6 329 24.987 0.0 0.00
2020-02-19 00:35 19.3 61.7 8.3 5.1 332 5.6 339 24.988 0.0 0.00
2020-02-19 00:30 19.1 62.8 8.5 3.9 335 4.5 327 24.990 0.0 0.00
2020-02-19 00:25 18.8 64.2 8.7 4.0 318 4.9 326 24.991 0.0 0.00
2020-02-19 00:20 18.4 65.2 8.7 5.5 326 6.4 337 24.992 0.0 0.00
2020-02-19 00:15 18.7 62.9 8.2 6.6 337 7.1 336 24.993 0.0 0.00
2020-02-19 00:10 19.1 63.1 8.6 6.8 339 7.5 345 24.993 0.0 0.00
2020-02-19 00:05 19.3 63.2 8.8 5.1 346 7.3 346 24.994 0.0 0.00
2020-02-19 00:00 20.6 58.4 8.3 5.0 347 5.5 333 24.995 0.0 0.00
2020-02-18 23:55 20.3 59.0 8.2 6.0 331 6.6 319 24.993 0.0 0.00
2020-02-18 23:50 19.9 60.2 8.4 6.6 318 7.1 324 24.992 0.0 0.00
2020-02-18 23:45 19.4 61.9 8.5 6.4 324 7.2 326 24.992 0.0 0.00
2020-02-18 23:40 20.0 61.8 9.0 7.0 327 7.9 331 24.992 0.0 0.00
2020-02-18 23:35 20.0 60.4 8.5 6.4 334 7.0 331 24.991 0.0 0.00
2020-02-18 23:30 20.2 61.2 9.0 5.9 319 6.4 321 24.992 0.0 0.00
2020-02-18 23:25 20.2 60.3 8.6 6.2 324 7.4 328 24.989 0.0 0.00
2020-02-18 23:20 20.2 62.2 9.4 4.7 325 5.4 321 24.991 0.0 0.00
2020-02-18 23:15 21.6 58.9 9.4 5.3 318 6.0 324 24.993 0.0 0.00
2020-02-18 23:10 21.3 56.9 8.4 5.5 315 6.3 320 24.991 0.0 0.00
2020-02-18 23:05 20.9 58.6 8.7 5.3 319 6.2 319 24.990 0.0 0.00